Time;durP1;ratioP1;P1;durP2;ratioP2;P2;SDS_P1;SDS_P2;PMS_P1;PMS_P2;Temp;Humidity;BMP_temperature;BMP_pressure;BME280_temperature;BME280_humidity;BME280_pressure;Samples;Min_cycle;Max_cycle;Signal;HPM_P1;HPM_P2
2023/06/28 00:01:03;;;;;;;1.80;1.52;;;;;;;;;;5069560;28;20209;-29
2023/06/28 00:03:30;;;;;;;2.35;1.67;;;;;;;;;;5068341;28;20749;-26
2023/06/28 00:05:58;;;;;;;2.88;1.63;;;;;;;;;;5070717;28;20209;-27
2023/06/28 00:08:25;;;;;;;1.70;1.60;;;;;;;;;;5072498;28;20228;-24
2023/06/28 00:10:52;;;;;;;2.22;1.58;;;;;;;;;;5077693;28;20208;-27
2023/06/28 00:13:19;;;;;;;3.40;1.80;;;;;;;;;;5089392;28;20202;-27
2023/06/28 00:15:48;;;;;;;1.75;1.30;;;;;;;;;;5089711;28;20660;-27
2023/06/28 00:18:15;;;;;;;1.92;1.80;;;;;;;;;;5084077;28;20264;-26
2023/06/28 00:20:42;;;;;;;3.00;1.60;;;;;;;;;;5086517;28;20632;-33
2023/06/28 00:23:09;;;;;;;3.33;1.80;;;;;;;;;;5069710;28;20212;-25
2023/06/28 00:25:37;;;;;;;1.58;1.48;;;;;;;;;;5075822;28;20197;-28
2023/06/28 00:28:04;;;;;;;3.13;1.60;;;;;;;;;;5079341;28;20219;-27
2023/06/28 00:30:31;;;;;;;2.10;1.90;;;;;;;;;;5089490;28;20206;-24
2023/06/28 00:33:00;;;;;;;3.08;1.70;;;;;;;;;;5086955;28;20206;-24
2023/06/28 00:35:27;;;;;;;2.47;1.80;;;;;;;;;;5072273;28;20206;-26
2023/06/28 00:37:54;;;;;;;1.70;1.58;;;;;;;;;;5070724;28;20226;-25
2023/06/28 00:40:21;;;;;;;2.00;1.70;;;;;;;;;;5065550;28;20197;-25
2023/06/28 00:42:49;;;;;;;2.13;1.40;;;;;;;;;;5085901;28;20208;-25
2023/06/28 00:45:16;;;;;;;1.50;1.40;;;;;;;;;;5089351;28;20658;-28
2023/06/28 00:47:44;;;;;;;2.80;2.10;;;;;;;;;;5080454;28;20229;-28
2023/06/28 00:50:13;;;;;;;4.85;1.65;;;;;;;;;;5083182;28;20212;-29
2023/06/28 00:52:40;;;;;;;6.00;2.00;;;;;;;;;;5089225;28;20197;-25
2023/06/28 00:55:08;;;;;;;3.13;1.60;;;;;;;;;;5075750;28;20217;-26
2023/06/28 00:57:35;;;;;;;2.50;2.05;;;;;;;;;;5086593;28;20233;-28
2023/06/28 01:00:03;;;;;;;4.88;1.77;;;;;;;;;;5086919;28;20205;-26
2023/06/28 01:02:30;;;;;;;4.45;1.80;;;;;;;;;;5068422;28;20208;-27
2023/06/28 01:04:57;;;;;;;2.15;1.60;;;;;;;;;;5077983;28;20209;-26
2023/06/28 01:07:27;;;;;;;4.00;1.73;;;;;;;;;;5087499;28;20219;-27
2023/06/28 01:09:56;;;;;;;3.17;1.27;;;;;;;;;;5076729;28;20238;-25
2023/06/28 01:12:23;;;;;;;2.28;1.73;;;;;;;;;;5080856;28;20196;-27
2023/06/28 01:14:50;;;;;;;3.10;1.60;;;;;;;;;;5092942;28;20246;-26
2023/06/28 01:17:17;;;;;;;1.42;1.33;;;;;;;;;;5090481;28;20220;-29
2023/06/28 01:19:45;;;;;;;4.03;1.60;;;;;;;;;;5082096;28;20206;-25
2023/06/28 01:22:13;;;;;;;1.83;1.50;;;;;;;;;;5084180;28;20207;-29
2023/06/28 01:24:41;;;;;;;4.07;1.60;;;;;;;;;;5079756;28;20205;-25
2023/06/28 01:27:09;;;;;;;1.60;1.33;;;;;;;;;;5079859;28;20208;-27
2023/06/28 01:29:37;;;;;;;1.70;1.52;;;;;;;;;;5077060;28;20302;-28
2023/06/28 01:32:05;;;;;;;1.52;1.10;;;;;;;;;;5073138;28;20212;-25
2023/06/28 01:34:32;;;;;;;3.97;1.40;;;;;;;;;;5082998;28;20205;-23
2023/06/28 01:37:01;;;;;;;2.38;1.27;;;;;;;;;;5075539;28;20228;-25
2023/06/28 01:39:29;;;;;;;3.30;1.70;;;;;;;;;;5070972;28;20312;-26
2023/06/28 01:41:58;;;;;;;3.53;1.70;;;;;;;;;;5073145;28;20205;-24
2023/06/28 01:44:25;;;;;;;4.47;1.60;;;;;;;;;;5092583;28;20208;-23
2023/06/28 01:46:53;;;;;;;1.93;1.30;;;;;;;;;;5093003;28;20208;-24
2023/06/28 01:49:20;;;;;;;1.52;1.42;;;;;;;;;;5085590;28;20401;-28
2023/06/28 01:51:47;;;;;;;1.70;1.55;;;;;;;;;;5080056;28;20197;-28
2023/06/28 01:54:16;;;;;;;2.47;1.48;;;;;;;;;;5078781;28;20205;-26
2023/06/28 01:56:43;;;;;;;4.90;1.50;;;;;;;;;;5089426;28;20192;-28
2023/06/28 01:59:11;;;;;;;3.47;1.80;;;;;;;;;;5083845;28;20239;-28
2023/06/28 02:01:39;;;;;;;2.20;1.45;;;;;;;;;;5094042;28;20208;-25
2023/06/28 02:04:06;;;;;;;3.60;1.75;;;;;;;;;;5082138;28;20209;-26
2023/06/28 02:06:33;;;;;;;4.53;2.13;;;;;;;;;;5079045;28;20208;-28
2023/06/28 02:09:00;;;;;;;3.10;1.63;;;;;;;;;;5072582;28;20404;-24
2023/06/28 02:11:28;;;;;;;4.25;1.95;;;;;;;;;;5082243;28;20200;-26
2023/06/28 02:13:55;;;;;;;3.35;1.88;;;;;;;;;;5091404;28;20204;-28
2023/06/28 02:16:24;;;;;;;2.42;1.70;;;;;;;;;;5087146;28;20227;-26
2023/06/28 02:18:51;;;;;;;4.63;1.80;;;;;;;;;;5084908;28;20224;-28
2023/06/28 02:21:18;;;;;;;3.05;1.58;;;;;;;;;;5077710;28;20208;-25
2023/06/28 02:23:45;;;;;;;3.60;1.73;;;;;;;;;;5070633;28;20376;-26
2023/06/28 02:26:12;;;;;;;2.63;1.50;;;;;;;;;;5079493;28;20200;-25
2023/06/28 02:28:40;;;;;;;6.95;1.83;;;;;;;;;;5094463;28;20303;-26
2023/06/28 02:31:07;;;;;;;2.90;1.50;;;;;;;;;;5093103;28;20200;-27
2023/06/28 02:33:35;;;;;;;2.13;1.50;;;;;;;;;;5087491;28;20232;-24
2023/06/28 02:36:02;;;;;;;3.57;1.70;;;;;;;;;;5085553;28;20208;-24
2023/06/28 02:38:29;;;;;;;4.90;1.57;;;;;;;;;;5080542;28;20220;-28
2023/06/28 02:40:56;;;;;;;1.80;1.40;;;;;;;;;;5077370;28;20205;-26
2023/06/28 02:43:23;;;;;;;2.97;1.63;;;;;;;;;;5091524;28;20237;-27
2023/06/28 02:45:51;;;;;;;1.73;1.63;;;;;;;;;;5127540;22;20274;-27
2023/06/28 02:48:18;;;;;;;1.60;1.50;;;;;;;;;;5001142;28;20596;-24
2023/06/28 02:50:46;;;;;;;3.40;1.40;;;;;;;;;;5007037;28;20230;-25
2023/06/28 02:53:14;;;;;;;3.93;2.10;;;;;;;;;;5011185;28;20619;-25
2023/06/28 02:55:41;;;;;;;2.40;1.60;;;;;;;;;;4999700;28;20207;-24
2023/06/28 02:58:08;;;;;;;2.17;1.63;;;;;;;;;;5001708;28;20560;-27
2023/06/28 03:00:37;;;;;;;3.53;1.60;;;;;;;;;;5011825;28;20199;-27
2023/06/28 03:03:09;;;;;;;3.47;1.87;;;;;;;;;;5003976;28;20211;-24
2023/06/28 03:05:36;;;;;;;3.63;1.63;;;;;;;;;;5001601;28;20562;-26
2023/06/28 03:08:05;;;;;;;2.60;1.70;;;;;;;;;;4993988;28;20242;-23
2023/06/28 03:10:33;;;;;;;1.60;1.50;;;;;;;;;;4996680;28;20212;-24
2023/06/28 03:13:00;;;;;;;4.70;1.60;;;;;;;;;;5011107;28;20207;-24
2023/06/28 03:15:27;;;;;;;2.03;1.70;;;;;;;;;;5011132;28;20685;-28
2023/06/28 03:17:54;;;;;;;1.60;1.50;;;;;;;;;;5007009;28;20223;-24
2023/06/28 03:20:21;;;;;;;2.23;1.40;;;;;;;;;;4997740;28;20207;-27
2023/06/28 03:22:49;;;;;;;3.87;1.80;;;;;;;;;;5002584;28;20199;-26
2023/06/28 03:25:17;;;;;;;1.50;1.40;;;;;;;;;;4989655;28;20204;-27
2023/06/28 03:27:45;;;;;;;2.17;1.53;;;;;;;;;;5001224;28;20231;-23
2023/06/28 03:30:12;;;;;;;5.90;1.87;;;;;;;;;;5010938;28;20206;-26
2023/06/28 03:32:39;;;;;;;2.10;1.90;;;;;;;;;;5007772;28;20545;-26
2023/06/28 03:35:07;;;;;;;3.75;2.13;;;;;;;;;;4994173;28;20212;-26
2023/06/28 03:37:34;;;;;;;2.00;1.50;;;;;;;;;;4998754;28;20214;-24
2023/06/28 03:40:01;;;;;;;3.30;1.60;;;;;;;;;;5004511;28;20298;-25
2023/06/28 03:42:30;;;;;;;3.73;1.70;;;;;;;;;;5004521;28;20283;-23
2023/06/28 03:44:57;;;;;;;4.50;1.80;;;;;;;;;;5000712;28;20684;-26
2023/06/28 03:47:24;;;;;;;1.93;1.23;;;;;;;;;;5012580;28;20207;-25
2023/06/28 03:49:51;;;;;;;2.33;1.63;;;;;;;;;;5017448;28;20207;-27
2023/06/28 03:52:18;;;;;;;2.57;1.50;;;;;;;;;;5032297;28;20207;-26
2023/06/28 03:54:45;;;;;;;3.97;1.60;;;;;;;;;;5020528;28;20223;-26
2023/06/28 03:57:12;;;;;;;1.70;1.50;;;;;;;;;;5027151;28;20229;-23
2023/06/28 03:59:41;;;;;;;3.83;1.50;;;;;;;;;;5016517;28;20230;-26
2023/06/28 04:02:08;;;;;;;4.23;1.50;;;;;;;;;;5012666;28;20214;-24
2023/06/28 04:04:35;;;;;;;2.50;1.77;;;;;;;;;;5027339;28;20213;-26
2023/06/28 04:07:02;;;;;;;3.33;1.50;;;;;;;;;;5021261;28;20211;-24
2023/06/28 04:09:29;;;;;;;2.33;1.77;;;;;;;;;;5011206;28;20223;-26
2023/06/28 04:11:56;;;;;;;2.43;1.70;;;;;;;;;;5021369;28;20221;-28
2023/06/28 04:14:24;;;;;;;1.43;1.33;;;;;;;;;;5018998;28;20211;-24
2023/06/28 04:16:53;;;;;;;4.57;1.77;;;;;;;;;;5012441;28;20254;-26
2023/06/28 04:19:20;;;;;;;2.17;1.70;;;;;;;;;;5022931;28;20229;-24
2023/06/28 04:21:47;;;;;;;3.50;1.53;;;;;;;;;;5032077;28;20205;-25
2023/06/28 04:24:14;;;;;;;1.83;1.73;;;;;;;;;;5015962;28;20220;-26
2023/06/28 04:26:41;;;;;;;3.40;1.77;;;;;;;;;;5015318;28;20210;-23
2023/06/28 04:29:09;;;;;;;3.40;1.60;;;;;;;;;;5023970;28;20241;-25
2023/06/28 04:31:36;;;;;;;2.43;1.83;;;;;;;;;;5033084;28;20258;-25
2023/06/28 04:34:05;;;;;;;1.63;1.40;;;;;;;;;;5021191;28;20208;-27
2023/06/28 04:36:32;;;;;;;4.10;1.90;;;;;;;;;;5023898;28;20203;-22
2023/06/28 04:39:03;;;;;;;3.30;1.60;;;;;;;;;;5012046;28;20227;-26
2023/06/28 04:41:30;;;;;;;2.10;1.87;;;;;;;;;;5025968;28;20198;-25
2023/06/28 04:43:57;;;;;;;1.53;1.30;;;;;;;;;;5031051;28;20202;-24
2023/06/28 04:46:26;;;;;;;2.43;1.80;;;;;;;;;;5035429;28;20221;-23
2023/06/28 04:48:53;;;;;;;2.90;1.70;;;;;;;;;;5032518;28;20233;-25
2023/06/28 04:51:22;;;;;;;2.13;1.73;;;;;;;;;;5028824;28;20201;-24
2023/06/28 04:53:49;;;;;;;1.77;1.63;;;;;;;;;;5032069;28;20206;-27
2023/06/28 04:56:17;;;;;;;3.67;1.73;;;;;;;;;;5030315;28;20220;-23
2023/06/28 04:58:44;;;;;;;3.03;1.77;;;;;;;;;;5028280;28;20231;-27
2023/06/28 05:01:11;;;;;;;3.23;1.80;;;;;;;;;;5035126;28;20210;-23
2023/06/28 05:03:39;;;;;;;3.03;1.80;;;;;;;;;;5027967;28;20213;-23
2023/06/28 05:06:07;;;;;;;2.77;1.70;;;;;;;;;;5034033;28;20225;-25
2023/06/28 05:08:35;;;;;;;2.03;1.83;;;;;;;;;;5030599;28;20288;-25
2023/06/28 05:11:03;;;;;;;2.47;2.00;;;;;;;;;;5022908;28;20218;-25
2023/06/28 05:13:30;;;;;;;2.70;1.67;;;;;;;;;;5034501;28;20206;-26
2023/06/28 05:15:57;;;;;;;2.63;1.90;;;;;;;;;;5030907;28;20305;-26
2023/06/28 05:18:25;;;;;;;2.27;1.80;;;;;;;;;;5025765;28;20226;-24
2023/06/28 05:20:52;;;;;;;6.13;1.70;;;;;;;;;;5025164;28;20214;-25
2023/06/28 05:23:20;;;;;;;2.00;1.50;;;;;;;;;;5014699;28;20207;-23
2023/06/28 05:25:49;;;;;;;2.30;1.80;;;;;;;;;;5032228;28;20203;-24
2023/06/28 05:28:16;;;;;;;3.40;1.73;;;;;;;;;;5030057;28;20215;-26
2023/06/28 05:30:44;;;;;;;3.73;1.80;;;;;;;;;;5015787;28;20218;-26
2023/06/28 05:33:12;;;;;;;5.60;1.97;;;;;;;;;;5017289;28;20638;-24
2023/06/28 05:35:39;;;;;;;1.50;1.40;;;;;;;;;;5014949;28;20211;-25
2023/06/28 05:38:07;;;;;;;2.43;1.37;;;;;;;;;;5033313;28;20226;-26
2023/06/28 05:40:34;;;;;;;5.00;1.70;;;;;;;;;;5026904;28;20680;-26
2023/06/28 05:43:03;;;;;;;3.20;1.83;;;;;;;;;;5032067;28;20198;-22
2023/06/28 05:45:31;;;;;;;2.03;1.50;;;;;;;;;;5014789;28;20219;-26
2023/06/28 05:47:59;;;;;;;2.27;1.60;;;;;;;;;;5013340;28;20227;-23
2023/06/28 05:50:26;;;;;;;2.63;1.70;;;;;;;;;;5015183;28;20207;-24
2023/06/28 05:52:53;;;;;;;1.67;1.57;;;;;;;;;;5015702;28;20203;-27
2023/06/28 05:55:20;;;;;;;2.77;1.63;;;;;;;;;;5021082;28;20207;-26
2023/06/28 05:57:47;;;;;;;3.33;2.03;;;;;;;;;;5030496;28;20233;-22
2023/06/28 06:00:17;;;;;;;2.97;1.90;;;;;;;;;;5034139;28;20218;-28
2023/06/28 06:02:44;;;;;;;3.80;1.93;;;;;;;;;;5031725;28;20198;-22
2023/06/28 06:05:13;;;;;;;4.80;1.80;;;;;;;;;;5027571;28;20203;-26
2023/06/28 06:07:40;;;;;;;6.17;1.73;;;;;;;;;;5027438;28;20222;-24
2023/06/28 06:10:08;;;;;;;5.00;1.77;;;;;;;;;;5026880;28;20206;-24
2023/06/28 06:12:36;;;;;;;4.27;2.00;;;;;;;;;;5018578;28;20222;-26
2023/06/28 06:15:04;;;;;;;3.87;1.90;;;;;;;;;;5013971;28;20227;-23
2023/06/28 06:17:32;;;;;;;2.40;1.93;;;;;;;;;;5014006;28;20210;-26
2023/06/28 06:20:00;;;;;;;3.33;1.77;;;;;;;;;;5017270;28;20322;-24
2023/06/28 06:22:27;;;;;;;5.27;2.17;;;;;;;;;;5022051;28;20195;-23
2023/06/28 06:24:57;;;;;;;5.17;2.20;;;;;;;;;;5019222;28;20218;-26
2023/06/28 06:27:25;;;;;;;3.73;2.33;;;;;;;;;;5024332;28;20207;-25
2023/06/28 06:29:52;;;;;;;2.47;2.13;;;;;;;;;;5031287;28;20203;-24
2023/06/28 06:32:19;;;;;;;2.80;2.37;;;;;;;;;;5030554;28;20210;-26
2023/06/28 06:34:47;;;;;;;2.77;1.87;;;;;;;;;;5018643;28;20203;-27
2023/06/28 06:37:14;;;;;;;3.63;1.90;;;;;;;;;;5021526;28;20203;-25
2023/06/28 06:39:42;;;;;;;4.83;2.13;;;;;;;;;;5015218;28;20226;-23
2023/06/28 06:42:09;;;;;;;5.47;2.27;;;;;;;;;;5026556;28;20209;-25
2023/06/28 06:44:36;;;;;;;3.70;2.00;;;;;;;;;;5028467;28;20229;-25
2023/06/28 06:47:04;;;;;;;4.63;1.93;;;;;;;;;;5030849;28;20639;-25
2023/06/28 06:49:31;;;;;;;3.73;1.70;;;;;;;;;;5019945;28;20625;-25
2023/06/28 06:52:00;;;;;;;2.30;1.80;;;;;;;;;;5020780;28;20206;-25
2023/06/28 06:54:29;;;;;;;3.80;2.00;;;;;;;;;;5014275;28;20207;-25
2023/06/28 06:56:56;;;;;;;4.17;2.07;;;;;;;;;;5026283;28;20238;-23
2023/06/28 06:59:24;;;;;;;3.80;1.97;;;;;;;;;;5013141;28;20218;-25
2023/06/28 07:01:51;;;;;;;5.57;2.03;;;;;;;;;;5013492;28;20242;-29
2023/06/28 07:04:18;;;;;;;5.17;2.40;;;;;;;;;;5015464;28;20276;-26
2023/06/28 07:06:46;;;;;;;5.47;1.90;;;;;;;;;;5020092;28;20199;-26
2023/06/28 07:09:15;;;;;;;4.13;1.87;;;;;;;;;;5014832;28;20907;-24
2023/06/28 07:11:42;;;;;;;3.67;2.30;;;;;;;;;;5033972;28;20211;-25
2023/06/28 07:14:09;;;;;;;4.57;2.00;;;;;;;;;;5025677;28;20199;-25
2023/06/28 07:16:36;;;;;;;5.68;2.20;;;;;;;;;;5034387;28;20210;-26
2023/06/28 07:19:05;;;;;;;5.03;2.50;;;;;;;;;;5025254;28;20240;-26
2023/06/28 07:21:33;;;;;;;4.03;2.50;;;;;;;;;;5021409;28;20293;-23
2023/06/28 07:24:00;;;;;;;5.83;2.17;;;;;;;;;;5027496;28;20665;-24
2023/06/28 07:26:28;;;;;;;4.73;1.87;;;;;;;;;;5022562;28;20210;-25
2023/06/28 07:28:55;;;;;;;4.33;1.80;;;;;;;;;;5032935;28;20223;-25
2023/06/28 07:31:22;;;;;;;2.23;1.93;;;;;;;;;;5032343;28;20203;-23
2023/06/28 07:33:50;;;;;;;3.63;1.93;;;;;;;;;;5025529;28;20205;-24
2023/06/28 07:36:17;;;;;;;3.97;2.00;;;;;;;;;;5021498;28;20233;-24
2023/06/28 07:38:44;;;;;;;4.07;2.77;;;;;;;;;;5012087;28;20227;-24
2023/06/28 07:41:11;;;;;;;3.90;2.00;;;;;;;;;;5020768;28;20313;-25
2023/06/28 07:43:40;;;;;;;4.17;1.77;;;;;;;;;;5024361;28;20233;-26
2023/06/28 07:46:07;;;;;;;1.87;1.77;;;;;;;;;;5031329;28;20218;-25
2023/06/28 07:48:34;;;;;;;4.83;2.30;;;;;;;;;;5026625;28;20318;-26
2023/06/28 07:51:02;;;;;;;3.47;2.00;;;;;;;;;;5028710;28;20209;-24
2023/06/28 07:53:29;;;;;;;3.67;1.90;;;;;;;;;;5013062;28;20243;-25
2023/06/28 07:55:56;;;;;;;6.83;2.07;;;;;;;;;;5021356;28;20733;-26
2023/06/28 07:58:24;;;;;;;4.90;2.30;;;;;;;;;;5012240;28;20219;-26
2023/06/28 08:00:52;;;;;;;3.10;2.10;;;;;;;;;;5012596;28;20230;-26
2023/06/28 08:03:20;;;;;;;3.80;2.07;;;;;;;;;;5011475;28;20206;-24
2023/06/28 08:05:47;;;;;;;4.87;2.20;;;;;;;;;;5021197;28;20234;-27
2023/06/28 08:08:14;;;;;;;2.77;2.37;;;;;;;;;;5009996;28;20229;-26
2023/06/28 08:10:41;;;;;;;2.08;1.73;;;;;;;;;;5015516;28;20199;-24
2023/06/28 08:13:08;;;;;;;4.00;2.03;;;;;;;;;;5023561;28;20194;-24
2023/06/28 08:15:36;;;;;;;3.17;1.75;;;;;;;;;;5032298;28;20210;-26
2023/06/28 08:18:08;;;;;;;4.93;1.90;;;;;;;;;;5019822;28;20651;-26
2023/06/28 08:20:35;;;;;;;3.30;1.63;;;;;;;;;;5020819;28;20832;-24
2023/06/28 08:23:03;;;;;;;4.53;1.90;;;;;;;;;;5035238;28;20238;-24
2023/06/28 08:25:30;;;;;;;2.27;1.63;;;;;;;;;;5030552;28;20203;-26
2023/06/28 08:27:57;;;;;;;4.85;2.03;;;;;;;;;;5035838;28;20226;-23
2023/06/28 08:30:24;;;;;;;2.47;1.87;;;;;;;;;;5036056;28;20217;-27
2023/06/28 08:32:51;;;;;;;3.03;2.17;;;;;;;;;;5032290;28;20218;-24
2023/06/28 08:35:20;;;;;;;3.30;1.70;;;;;;;;;;5016789;28;20218;-21
2023/06/28 08:37:47;;;;;;;3.40;1.50;;;;;;;;;;5023509;28;20219;-25
2023/06/28 08:40:14;;;;;;;1.77;1.60;;;;;;;;;;5015461;28;20223;-24
2023/06/28 08:42:42;;;;;;;4.93;2.00;;;;;;;;;;5026412;28;20198;-23
2023/06/28 08:45:09;;;;;;;3.15;1.70;;;;;;;;;;5016486;28;20230;-23
2023/06/28 08:47:37;;;;;;;4.37;1.90;;;;;;;;;;5015940;28;20227;-21
2023/06/28 08:50:05;;;;;;;4.80;2.00;;;;;;;;;;5019763;28;20210;-21
2023/06/28 08:52:36;;;;;;;5.57;2.23;;;;;;;;;;5021137;28;20203;-24
2023/06/28 08:55:04;;;;;;;1.88;1.70;;;;;;;;;;5026369;28;20289;-23
2023/06/28 08:57:32;;;;;;;3.13;1.75;;;;;;;;;;5023103;28;20211;-24
2023/06/28 08:59:59;;;;;;;1.70;1.60;;;;;;;;;;5035617;28;20222;-22
2023/06/28 09:02:27;;;;;;;3.15;2.03;;;;;;;;;;5031839;28;20202;-23
2023/06/28 09:04:54;;;;;;;1.42;1.20;;;;;;;;;;5025141;28;20208;-21
2023/06/28 09:07:22;;;;;;;4.13;2.10;;;;;;;;;;5022187;28;20286;-24
2023/06/28 09:09:51;;;;;;;3.63;1.98;;;;;;;;;;5021548;28;20214;-24
2023/06/28 09:12:19;;;;;;;5.05;1.83;;;;;;;;;;5027533;28;20207;-24
2023/06/28 09:14:46;;;;;;;2.25;1.67;;;;;;;;;;5018911;28;20200;-25
2023/06/28 09:17:14;;;;;;;4.22;1.65;;;;;;;;;;5014046;28;20207;-24
2023/06/28 09:19:41;;;;;;;4.32;1.42;;;;;;;;;;5025788;28;20215;-23
2023/06/28 09:22:09;;;;;;;2.72;1.52;;;;;;;;;;5026511;28;20289;-23
2023/06/28 09:24:40;;;;;;;2.42;1.60;;;;;;;;;;5025628;28;20203;-24
2023/06/28 09:27:11;;;;;;;3.47;2.00;;;;;;;;;;5012590;28;20211;-24
2023/06/28 09:29:38;;;;;;;3.40;2.25;;;;;;;;;;5014581;28;20782;-25
2023/06/28 09:32:06;;;;;;;2.80;1.70;;;;;;;;;;5015160;28;20217;-27
2023/06/28 09:34:33;;;;;;;3.58;1.45;;;;;;;;;;5132026;23;20226;-31
2023/06/28 09:37:00;;;;;;;2.80;1.85;;;;;;;;;;5032370;28;20673;-31
2023/06/28 09:39:28;;;;;;;4.80;1.60;;;;;;;;;;5026426;28;20231;-34
2023/06/28 09:41:55;;;;;;;2.47;1.70;;;;;;;;;;5023110;28;20228;-31
2023/06/28 09:44:29;;;;;;;5.32;1.88;;;;;;;;;;5026492;28;20197;-32
2023/06/28 09:47:01;;;;;;;2.70;1.63;;;;;;;;;;5015178;28;20196;-31
2023/06/28 09:49:28;;;;;;;1.98;1.40;;;;;;;;;;5024777;28;20249;-35
2023/06/28 09:51:59;;;;;;;1.50;1.38;;;;;;;;;;5025212;28;20327;-30
2023/06/28 09:54:33;;;;;;;2.80;1.65;;;;;;;;;;5025135;28;20667;-31
2023/06/28 09:57:01;;;;;;;4.30;1.70;;;;;;;;;;5030759;28;20268;-30
2023/06/28 09:59:30;;;;;;;2.00;1.55;;;;;;;;;;5025673;28;20225;-32
2023/06/28 10:01:58;;;;;;;5.60;2.08;;;;;;;;;;5022175;28;20228;-34
2023/06/28 10:04:28;;;;;;;3.85;1.75;;;;;;;;;;5026312;28;20205;-35
2023/06/28 10:06:56;;;;;;;4.32;1.80;;;;;;;;;;5024681;28;20208;-32
2023/06/28 10:09:24;;;;;;;4.88;1.95;;;;;;;;;;5017118;28;20234;-31
2023/06/28 10:11:52;;;;;;;3.55;1.63;;;;;;;;;;5030044;28;20205;-30
2023/06/28 10:14:20;;;;;;;2.78;1.58;;;;;;;;;;5028920;28;20201;-31
2023/06/28 10:16:50;;;;;;;3.72;1.42;;;;;;;;;;5023012;28;20212;-32
2023/06/28 10:19:17;;;;;;;3.53;1.63;;;;;;;;;;5023540;28;20229;-31
2023/06/28 10:21:45;;;;;;;4.47;1.40;;;;;;;;;;5031278;28;20216;-32
2023/06/28 10:24:12;;;;;;;2.83;1.45;;;;;;;;;;5022193;28;20565;-31
2023/06/28 10:26:39;;;;;;;2.47;1.45;;;;;;;;;;5017431;28;20208;-35
2023/06/28 10:29:06;;;;;;;2.92;1.60;;;;;;;;;;5011517;28;20484;-33
2023/06/28 10:31:33;;;;;;;3.03;1.85;;;;;;;;;;5010033;28;20201;-28
2023/06/28 10:34:02;;;;;;;2.47;1.70;;;;;;;;;;5020414;28;20218;-35
2023/06/28 10:36:30;;;;;;;2.88;1.65;;;;;;;;;;5024385;28;20212;-30
2023/06/28 10:38:57;;;;;;;3.58;2.05;;;;;;;;;;5009780;28;20225;-32
2023/06/28 10:41:25;;;;;;;3.63;2.22;;;;;;;;;;5014935;28;20237;-32
2023/06/28 10:44:02;;;;;;;1.60;1.50;;;;;;;;;;5018818;28;20631;-32
2023/06/28 10:46:30;;;;;;;3.55;1.80;;;;;;;;;;5010558;28;20192;-39
2023/06/28 10:48:59;;;;;;;3.53;2.10;;;;;;;;;;5028694;28;20234;-30
2023/06/28 10:51:29;;;;;;;3.58;1.85;;;;;;;;;;5030809;28;20201;-28
2023/06/28 10:54:09;;;;;;;2.80;1.35;;;;;;;;;;5025250;28;20244;-30
2023/06/28 10:56:37;;;;;;;2.50;1.70;;;;;;;;;;5015543;28;20213;-33
2023/06/28 10:59:06;;;;;;;3.15;1.77;;;;;;;;;;5011142;28;20225;-34
2023/06/28 11:01:34;;;;;;;5.55;1.83;;;;;;;;;;5011360;28;20245;-28
2023/06/28 11:04:18;;;;;;;4.88;1.70;;;;;;;;;;5015828;28;20212;-28
2023/06/28 11:06:47;;;;;;;5.57;1.90;;;;;;;;;;5010550;28;20198;-32
2023/06/28 11:09:15;;;;;;;2.67;1.90;;;;;;;;;;5023528;28;20229;-30
2023/06/28 11:11:43;;;;;;;3.20;1.38;;;;;;;;;;5015302;28;20251;-36
2023/06/28 11:14:22;;;;;;;3.63;1.55;;;;;;;;;;5010712;28;20427;-32
2023/06/28 11:16:49;;;;;;;8.43;1.63;;;;;;;;;;5011019;28;20392;-34
2023/06/28 11:19:18;;;;;;;4.05;1.95;;;;;;;;;;5013175;28;20232;-29
2023/06/28 11:21:50;;;;;;;6.22;1.80;;;;;;;;;;5027605;28;20215;-38
2023/06/28 11:24:25;;;;;;;2.00;1.48;;;;;;;;;;5015732;28;20256;-34
2023/06/28 11:26:53;;;;;;;3.50;1.63;;;;;;;;;;5011133;28;20220;-34
2023/06/28 11:29:20;;;;;;;3.83;1.70;;;;;;;;;;5029999;28;20225;-28
2023/06/28 11:31:49;;;;;;;1.48;1.38;;;;;;;;;;5028053;28;20216;-27
2023/06/28 11:34:16;;;;;;;3.28;1.65;;;;;;;;;;5011826;28;20217;-31
2023/06/28 11:36:43;;;;;;;2.30;1.63;;;;;;;;;;5012265;28;20216;-30
2023/06/28 11:39:14;;;;;;;2.20;1.63;;;;;;;;;;5018480;28;20619;-32
2023/06/28 11:41:43;;;;;;;2.45;1.90;;;;;;;;;;5015711;28;20206;-34
2023/06/28 11:44:11;;;;;;;2.60;1.90;;;;;;;;;;5030008;28;20205;-34
2023/06/28 11:46:39;;;;;;;3.13;1.80;;;;;;;;;;5023228;28;20292;-36
2023/06/28 11:49:06;;;;;;;3.75;1.88;;;;;;;;;;5016426;28;20236;-32
2023/06/28 11:51:33;;;;;;;4.53;1.88;;;;;;;;;;5020156;28;20561;-32
2023/06/28 11:54:01;;;;;;;2.88;1.55;;;;;;;;;;5021360;28;20212;-33
2023/06/28 11:56:36;;;;;;;6.00;1.67;;;;;;;;;;5014778;28;20208;-35
2023/06/28 11:59:16;;;;;;;2.25;1.73;;;;;;;;;;5018638;28;20223;-35
2023/06/28 12:01:43;;;;;;;2.53;1.67;;;;;;;;;;5008532;28;20231;-37
2023/06/28 12:04:17;;;;;;;6.40;2.15;;;;;;;;;;5017518;28;20569;-30
2023/06/28 12:06:45;;;;;;;2.47;1.30;;;;;;;;;;5017235;28;20228;-29
2023/06/28 12:09:18;;;;;;;1.98;1.52;;;;;;;;;;5020081;28;20701;-30
2023/06/28 12:11:58;;;;;;;3.17;1.65;;;;;;;;;;5026662;28;20275;-33
2023/06/28 12:14:25;;;;;;;2.83;1.50;;;;;;;;;;5022350;28;20237;-35
2023/06/28 12:16:53;;;;;;;2.45;1.65;;;;;;;;;;5032491;28;20573;-30
2023/06/28 12:19:20;;;;;;;3.60;1.83;;;;;;;;;;5033926;28;20589;-35
2023/06/28 12:21:47;;;;;;;3.10;1.42;;;;;;;;;;5034163;28;20232;-35
2023/06/28 12:24:16;;;;;;;2.63;1.90;;;;;;;;;;5022655;28;20220;-35
2023/06/28 12:26:45;;;;;;;2.75;1.65;;;;;;;;;;5008515;28;20489;-36
2023/06/28 12:29:13;;;;;;;3.30;1.20;;;;;;;;;;5008835;28;20695;-35
2023/06/28 12:31:42;;;;;;;4.85;1.63;;;;;;;;;;5010093;28;20209;-34
2023/06/28 12:34:09;;;;;;;2.58;1.25;;;;;;;;;;5020695;28;20248;-33
2023/06/28 12:36:36;;;;;;;4.03;1.77;;;;;;;;;;5014012;28;20201;-33
2023/06/28 12:39:06;;;;;;;2.72;1.70;;;;;;;;;;5011729;28;20235;-31
2023/06/28 12:41:33;;;;;;;3.33;1.63;;;;;;;;;;5009507;28;20225;-35
2023/06/28 12:44:00;;;;;;;3.80;1.80;;;;;;;;;;5025889;28;20443;-29
2023/06/28 12:46:29;;;;;;;3.30;1.40;;;;;;;;;;5026072;28;20295;-30
2023/06/28 12:48:57;;;;;;;2.65;1.80;;;;;;;;;;5013092;28;20242;-28
2023/06/28 12:51:24;;;;;;;3.65;1.50;;;;;;;;;;5011494;28;20206;-30
2023/06/28 12:53:52;;;;;;;4.22;1.30;;;;;;;;;;5023169;28;20211;-30
2023/06/28 12:56:19;;;;;;;3.88;1.45;;;;;;;;;;5020326;28;20209;-36
2023/06/28 12:58:47;;;;;;;2.25;1.10;;;;;;;;;;5008759;28;20217;-33
2023/06/28 13:01:14;;;;;;;2.15;1.40;;;;;;;;;;5008158;28;20318;-34
2023/06/28 13:03:42;;;;;;;5.53;1.50;;;;;;;;;;5020285;28;20213;-33
2023/06/28 13:06:09;;;;;;;2.90;1.27;;;;;;;;;;5011682;28;20221;-35
2023/06/28 13:08:36;;;;;;;1.65;1.08;;;;;;;;;;5010992;28;20587;-32
2023/06/28 13:11:03;;;;;;;7.15;1.20;;;;;;;;;;5018864;28;20210;-34
2023/06/28 13:13:31;;;;;;;2.03;1.20;;;;;;;;;;5018431;28;20306;-29
2023/06/28 13:15:58;;;;;;;2.63;1.20;;;;;;;;;;5029883;28;20212;-35
2023/06/28 13:18:25;;;;;;;2.78;1.25;;;;;;;;;;5023422;28;20252;-35
2023/06/28 13:20:53;;;;;;;1.50;1.40;;;;;;;;;;5031261;28;20209;-34
2023/06/28 13:23:20;;;;;;;1.63;1.10;;;;;;;;;;5022986;28;20209;-29
2023/06/28 13:25:48;;;;;;;5.82;1.45;;;;;;;;;;5023714;28;20209;-37
2023/06/28 13:28:15;;;;;;;2.40;1.30;;;;;;;;;;5015755;28;20254;-28
2023/06/28 13:30:42;;;;;;;3.20;1.10;;;;;;;;;;5032406;28;20216;-32
2023/06/28 13:33:09;;;;;;;1.30;1.20;;;;;;;;;;5027474;28;20224;-33
2023/06/28 13:35:36;;;;;;;1.98;1.00;;;;;;;;;;5023450;28;20394;-30
2023/06/28 13:38:05;;;;;;;1.33;1.17;;;;;;;;;;5018999;28;20234;-34
2023/06/28 13:40:32;;;;;;;3.58;1.23;;;;;;;;;;5012472;28;20214;-37
2023/06/28 13:42:59;;;;;;;1.58;1.10;;;;;;;;;;5023479;28;20225;-32
2023/06/28 13:45:26;;;;;;;2.28;1.30;;;;;;;;;;5032374;28;20219;-31
2023/06/28 13:47:54;;;;;;;5.05;1.23;;;;;;;;;;5024133;28;20585;-32
2023/06/28 13:50:21;;;;;;;1.88;1.20;;;;;;;;;;5028069;28;20205;-36
2023/06/28 13:52:48;;;;;;;1.50;1.15;;;;;;;;;;5031632;28;20368;-28
2023/06/28 13:55:16;;;;;;;1.35;1.13;;;;;;;;;;5023259;28;20226;-31
2023/06/28 13:57:43;;;;;;;1.33;1.08;;;;;;;;;;5026875;28;20233;-35
2023/06/28 14:00:11;;;;;;;1.75;1.25;;;;;;;;;;5031495;28;20837;-32
2023/06/28 14:02:38;;;;;;;2.75;1.50;;;;;;;;;;5023443;28;20588;-31
2023/06/28 14:05:06;;;;;;;4.32;1.10;;;;;;;;;;5019623;28;20215;-34
2023/06/28 14:07:33;;;;;;;1.60;1.20;;;;;;;;;;5011467;28;20227;-32
2023/06/28 14:10:02;;;;;;;2.95;1.20;;;;;;;;;;5009664;28;20215;-34
2023/06/28 14:12:31;;;;;;;3.28;1.23;;;;;;;;;;5012550;28;20284;-31
2023/06/28 14:14:58;;;;;;;1.45;1.27;;;;;;;;;;5014638;28;20216;-34
2023/06/28 14:17:25;;;;;;;2.05;1.10;;;;;;;;;;5014085;28;20572;-31
2023/06/28 14:19:52;;;;;;;3.05;1.60;;;;;;;;;;5013609;28;20224;-32
2023/06/28 14:22:19;;;;;;;1.58;1.30;;;;;;;;;;5025789;28;20690;-31
2023/06/28 14:24:46;;;;;;;2.85;1.23;;;;;;;;;;5028823;28;20201;-36
2023/06/28 14:27:14;;;;;;;1.48;0.93;;;;;;;;;;5025925;28;20206;-31
2023/06/28 14:29:42;;;;;;;2.00;1.00;;;;;;;;;;5035242;28;20660;-32
2023/06/28 14:32:09;;;;;;;2.25;1.30;;;;;;;;;;5033112;28;20209;-32
2023/06/28 14:34:37;;;;;;;3.17;1.10;;;;;;;;;;5020953;28;20220;-34
2023/06/28 14:37:04;;;;;;;2.90;1.38;;;;;;;;;;5017160;28;20206;-33
2023/06/28 14:39:31;;;;;;;3.22;1.17;;;;;;;;;;5026220;28;20293;-29
2023/06/28 14:41:58;;;;;;;1.80;1.10;;;;;;;;;;5022994;28;20228;-31
2023/06/28 14:44:25;;;;;;;2.10;1.10;;;;;;;;;;5031489;28;20210;-37
2023/06/28 14:46:54;;;;;;;1.27;1.17;;;;;;;;;;5024720;28;20209;-36